createdAt,value
2019-01-24T00:02:23.510Z,23.83
2019-01-24T00:05:11.707Z,22.33
2019-01-24T00:07:59.918Z,25.00
2019-01-24T00:10:48.375Z,24.07
2019-01-24T00:13:36.580Z,25.10
2019-01-24T00:16:24.820Z,23.80
2019-01-24T00:19:13.062Z,21.63
2019-01-24T00:22:01.247Z,24.43
2019-01-24T00:24:49.459Z,24.13
2019-01-24T00:27:37.650Z,23.60
2019-01-24T00:30:25.870Z,22.63
2019-01-24T00:33:07.726Z,22.70
2019-01-24T00:35:48.654Z,23.20
2019-01-24T00:38:29.478Z,22.07
2019-01-24T00:41:10.407Z,24.87
2019-01-24T00:43:50.943Z,22.40
2019-01-24T00:46:32.564Z,23.90
2019-01-24T00:49:13.812Z,23.67
2019-01-24T00:51:54.582Z,25.43
2019-01-24T00:54:36.033Z,23.20
2019-01-24T00:57:17.263Z,24.30
2019-01-24T00:59:58.419Z,23.50
2019-01-24T01:02:38.931Z,24.80
2019-01-24T01:05:20.029Z,21.23
2019-01-24T01:08:01.390Z,23.47
2019-01-24T01:10:42.260Z,21.17
2019-01-24T01:13:23.114Z,21.90
2019-01-24T01:16:04.086Z,22.30
2019-01-24T01:18:45.050Z,21.47
2019-01-24T01:21:25.834Z,22.63
2019-01-24T01:23:55.231Z,23.10
2019-01-24T01:26:43.422Z,24.90
2019-01-24T01:29:31.641Z,23.57
2019-01-24T01:32:19.831Z,25.97
2019-01-24T01:35:08.150Z,24.43
2019-01-24T01:37:56.354Z,24.57
2019-01-24T01:40:45.097Z,21.80
2019-01-24T01:43:33.299Z,23.13
2019-01-24T01:46:21.506Z,20.83
2019-01-24T01:49:09.995Z,22.77
2019-01-24T01:51:58.190Z,23.70
2019-01-24T01:54:46.416Z,24.40
2019-01-24T01:57:34.602Z,22.07
2019-01-24T02:00:23.365Z,22.00
2019-01-24T02:03:11.545Z,23.43
2019-01-24T02:05:59.772Z,22.83
2019-01-24T02:08:48.002Z,22.07
2019-01-24T02:11:36.199Z,22.93
2019-01-24T02:14:24.405Z,24.40
2019-01-24T02:17:12.585Z,21.67
2019-01-24T02:20:00.809Z,24.20
2019-01-24T02:22:49.086Z,22.17
2019-01-24T02:25:37.420Z,22.23
2019-01-24T02:28:25.616Z,22.47
2019-01-24T02:31:14.099Z,21.63
2019-01-24T02:34:02.323Z,22.93
2019-01-24T02:36:50.521Z,22.70
2019-01-24T02:39:38.746Z,21.03
2019-01-24T02:42:08.100Z,23.73
2019-01-24T02:44:56.571Z,23.90
2019-01-24T02:47:44.767Z,23.40
2019-01-24T02:50:25.873Z,23.83
2019-01-24T02:53:07.200Z,23.03
2019-01-24T02:55:48.935Z,21.87
2019-01-24T02:58:30.215Z,23.47
2019-01-24T03:01:11.603Z,21.43
2019-01-24T03:03:52.791Z,25.83
2019-01-24T03:06:34.064Z,24.07
2019-01-24T03:09:14.831Z,22.60
2019-01-24T03:11:56.072Z,23.77
2019-01-24T03:14:37.363Z,21.63
2019-01-24T03:17:18.326Z,22.00
2019-01-24T03:19:59.154Z,22.20
2019-01-24T03:22:39.814Z,23.57
2019-01-24T03:25:20.877Z,23.90
2019-01-24T03:27:50.484Z,25.97
2019-01-24T03:30:38.967Z,28.23
2019-01-24T03:33:27.161Z,30.80
2019-01-24T03:36:15.375Z,30.47
2019-01-24T03:39:24.083Z,33.63
2019-01-24T03:42:12.300Z,31.07
2019-01-24T03:45:00.862Z,33.07
2019-01-24T03:47:49.413Z,32.60
2019-01-24T03:50:37.334Z,33.30
2019-01-24T03:53:25.648Z,34.30
2019-01-24T03:56:14.153Z,35.23
2019-01-24T03:59:02.626Z,36.50
2019-01-24T04:01:50.839Z,37.47
2019-01-24T04:04:39.363Z,35.80
2019-01-24T04:07:27.587Z,34.20
2019-01-24T04:10:16.582Z,38.20
2019-01-24T04:13:05.035Z,36.87
2019-01-24T04:15:34.247Z,33.60
2019-01-24T04:18:22.430Z,36.20
2019-01-24T04:21:10.638Z,35.60
2019-01-24T04:23:58.842Z,32.90
2019-01-24T04:26:47.086Z,36.07
2019-01-24T04:29:35.288Z,33.27
2019-01-24T04:32:23.768Z,36.47
2019-01-24T04:35:19.442Z,34.90
2019-01-24T04:38:02.430Z,36.00
2019-01-24T04:40:50.665Z,35.73
2019-01-24T04:43:38.857Z,35.27
2019-01-24T04:46:27.073Z,34.17
2019-01-24T04:49:15.353Z,34.73
2019-01-24T04:52:03.565Z,36.17
2019-01-24T04:54:51.755Z,36.13
2019-01-24T04:57:40.415Z,37.70
2019-01-24T05:00:30.625Z,35.60
2019-01-24T05:03:11.189Z,35.40
2019-01-24T05:05:51.220Z,38.50
2019-01-24T05:08:31.960Z,37.17
2019-01-24T05:11:12.967Z,35.83
2019-01-24T05:13:54.380Z,35.87
2019-01-24T05:16:23.530Z,35.10
2019-01-24T05:18:52.664Z,39.97
2019-01-24T05:21:41.162Z,33.43
2019-01-24T05:24:30.049Z,36.37
2019-01-24T05:27:18.320Z,35.77
2019-01-24T05:30:08.744Z,38.27
2019-01-24T05:32:57.604Z,37.00
2019-01-24T05:35:46.036Z,37.50
2019-01-24T05:38:34.501Z,33.63
2019-01-24T05:41:03.869Z,34.73
2019-01-24T05:43:53.622Z,37.00
2019-01-24T05:46:23.445Z,33.97
2019-01-24T05:49:11.737Z,36.87
2019-01-24T05:52:00.009Z,34.27
2019-01-24T05:54:48.755Z,35.47
2019-01-24T05:57:37.284Z,34.73
2019-01-24T06:03:32.935Z,33.87
2019-01-24T06:06:13.349Z,34.13
2019-01-24T06:08:54.294Z,36.93
2019-01-24T06:11:35.530Z,33.30
2019-01-24T06:14:05.103Z,34.80
2019-01-24T06:16:34.288Z,35.80
2019-01-24T06:19:03.374Z,36.30
2019-01-24T06:21:32.571Z,34.30
2019-01-24T06:24:01.760Z,34.27
2019-01-24T06:26:49.983Z,35.77
2019-01-24T06:29:38.179Z,35.50
2019-01-24T06:32:26.421Z,33.97
2019-01-24T06:35:15.153Z,32.70
2019-01-24T06:38:03.408Z,35.10
2019-01-24T06:40:51.614Z,33.57
2019-01-24T06:43:39.866Z,33.90
2019-01-24T06:46:28.342Z,35.37
2019-01-24T06:49:16.565Z,36.03
2019-01-24T06:52:04.899Z,35.10
2019-01-24T06:54:46.184Z,34.57
2019-01-24T06:57:15.368Z,34.77
2019-01-24T07:00:03.759Z,36.37
2019-01-24T07:02:54.671Z,33.43
2019-01-24T07:05:42.972Z,35.50
2019-01-24T07:08:31.271Z,35.43
2019-01-24T07:11:19.757Z,35.20
2019-01-24T07:14:07.979Z,34.20
2019-01-24T07:16:56.202Z,31.73
2019-01-24T07:19:44.407Z,33.90
2019-01-24T07:22:32.638Z,32.47
2019-01-24T07:25:22.081Z,35.20
2019-01-24T07:28:10.607Z,34.80
2019-01-24T07:30:59.081Z,35.67
2019-01-24T07:33:47.324Z,35.17
2019-01-24T07:36:16.700Z,36.23
2019-01-24T07:39:06.833Z,35.60
2019-01-24T07:41:55.306Z,36.60
2019-01-24T07:44:36.129Z,35.23
2019-01-24T07:47:16.882Z,35.27
2019-01-24T07:49:57.547Z,37.60
2019-01-24T07:52:38.018Z,35.73
2019-01-24T07:55:18.769Z,34.60
2019-01-24T07:57:59.759Z,35.23
2019-01-24T08:00:40.879Z,33.63
2019-01-24T08:03:21.714Z,37.33
2019-01-24T08:06:08.860Z,34.50
2019-01-24T08:08:44.935Z,32.90
2019-01-24T08:11:25.540Z,36.50
2019-01-24T08:14:06.155Z,38.10
2019-01-24T08:16:47.092Z,36.87
2019-01-24T08:19:28.021Z,35.87
2019-01-24T08:22:08.947Z,37.20
2019-01-24T08:24:49.912Z,36.50
2019-01-24T08:27:31.155Z,33.13
2019-01-24T08:30:12.578Z,33.17
2019-01-24T08:32:53.388Z,35.80
2019-01-24T08:35:34.355Z,34.87
2019-01-24T08:38:15.276Z,35.73
2019-01-24T08:40:55.667Z,36.10
2019-01-24T08:43:36.275Z,39.20
2019-01-24T08:46:17.140Z,37.10
2019-01-24T08:55:00.831Z,36.87
2019-01-24T08:57:30.295Z,35.77
2019-01-24T09:00:18.860Z,39.03
2019-01-24T09:03:07.336Z,35.53
2019-01-24T09:05:55.540Z,37.57
2019-01-24T09:08:44.019Z,37.33
2019-01-24T09:11:31.662Z,38.37
2019-01-24T09:14:00.775Z,38.63
2019-01-24T09:16:48.982Z,40.70
2019-01-24T09:19:18.123Z,37.83
2019-01-24T09:22:06.323Z,37.87
2019-01-24T09:24:54.688Z,40.47
2019-01-24T09:27:43.012Z,37.17
2019-01-24T09:30:31.607Z,39.83
2019-01-24T09:33:19.826Z,38.17
2019-01-24T09:36:08.340Z,37.87
2019-01-24T09:38:56.660Z,39.47
2019-01-24T09:41:26.027Z,36.90
2019-01-24T09:43:55.146Z,40.10
2019-01-24T09:46:36.663Z,37.07
2019-01-24T09:49:06.072Z,38.20
2019-01-24T09:51:54.291Z,36.03
2019-01-24T09:54:42.535Z,37.33
2019-01-24T09:57:31.018Z,38.13
2019-01-24T10:00:20.316Z,39.07
2019-01-24T10:03:08.556Z,36.53
2019-01-24T10:05:57.119Z,38.67
2019-01-24T10:08:45.774Z,39.30
2019-01-24T10:11:34.417Z,39.00
2019-01-24T10:14:22.649Z,37.77
2019-01-24T10:17:10.863Z,37.77
2019-01-24T10:19:59.100Z,38.30
2019-01-24T10:22:47.356Z,40.87
2019-01-24T10:28:51.715Z,40.00
2019-01-24T10:31:39.912Z,40.60
2019-01-24T10:34:28.415Z,38.10
2019-01-24T10:37:16.631Z,38.10
2019-01-24T10:43:19.866Z,39.10
2019-01-24T10:46:01.537Z,40.23
2019-01-24T10:48:41.999Z,38.37
2019-01-24T10:51:23.323Z,37.70
2019-01-24T10:54:04.420Z,37.97
2019-01-24T10:56:45.205Z,37.90
2019-01-24T10:59:25.692Z,38.20
2019-01-24T11:02:05.361Z,40.07
2019-01-24T11:04:53.683Z,39.80
2019-01-24T11:07:41.902Z,40.03
2019-01-24T11:10:30.204Z,39.20
2019-01-24T11:13:18.675Z,47.70
2019-01-24T11:16:07.181Z,39.50
2019-01-24T11:18:55.404Z,37.90
2019-01-24T11:21:43.640Z,38.73
2019-01-24T11:24:31.891Z,38.77
2019-01-24T11:27:20.212Z,34.30
2019-01-24T11:30:09.430Z,36.43
2019-01-24T11:33:18.987Z,35.60
2019-01-24T11:36:07.756Z,34.17
2019-01-24T11:38:56.408Z,33.43
2019-01-24T11:41:44.782Z,35.27
2019-01-24T11:44:33.483Z,33.17
2019-01-24T11:47:22.030Z,31.60
2019-01-24T11:49:51.647Z,30.70
2019-01-24T11:52:40.137Z,34.07
2019-01-24T11:55:28.586Z,32.67
2019-01-24T11:57:57.857Z,33.30
2019-01-24T12:01:05.149Z,34.37
2019-01-24T12:03:53.641Z,32.73
2019-01-24T12:06:42.168Z,33.23
2019-01-24T12:09:30.675Z,33.70
2019-01-24T12:12:18.990Z,30.77
2019-01-24T12:15:08.530Z,34.27
2019-01-24T12:17:56.736Z,34.87
2019-01-24T12:20:45.515Z,33.07
2019-01-24T12:23:14.616Z,33.00
2019-01-24T12:26:03.019Z,39.47
2019-01-24T12:28:32.110Z,38.00
2019-01-24T12:31:20.353Z,31.37
2019-01-24T12:34:08.557Z,33.43
2019-01-24T12:36:50.208Z,32.80
2019-01-24T12:39:30.593Z,33.47
2019-01-24T12:42:11.486Z,31.97
2019-01-24T12:44:52.205Z,33.33
2019-01-24T12:47:33.256Z,32.60
2019-01-24T12:50:13.809Z,32.90
2019-01-24T12:52:54.840Z,34.60
2019-01-24T12:55:36.236Z,33.10
2019-01-24T12:58:05.967Z,48.17
2019-01-24T13:00:54.739Z,35.60
2019-01-24T13:03:24.158Z,30.57
2019-01-24T13:06:12.365Z,34.63
2019-01-24T13:09:00.715Z,31.40
2019-01-24T13:11:30.119Z,30.63
2019-01-24T13:14:18.431Z,31.50
2019-01-24T13:17:06.906Z,35.90
2019-01-24T13:19:55.154Z,31.20
2019-01-24T13:22:43.361Z,33.10
2019-01-24T13:25:32.761Z,33.00
2019-01-24T13:28:20.964Z,31.00
2019-01-24T13:31:09.207Z,33.00
2019-01-24T13:33:57.471Z,31.47
2019-01-24T13:36:45.945Z,33.00
2019-01-24T13:39:34.163Z,30.73
2019-01-24T13:42:22.371Z,31.73
2019-01-24T13:45:11.612Z,32.17
2019-01-24T13:47:59.828Z,33.23
2019-01-24T13:50:48.067Z,32.80
2019-01-24T13:53:36.296Z,31.90
2019-01-24T13:56:24.495Z,31.30
2019-01-24T13:59:05.652Z,32.53
2019-01-24T14:01:47.283Z,42.87
2019-01-24T14:04:28.121Z,34.53
2019-01-24T14:07:09.130Z,32.30
2019-01-24T14:09:49.924Z,30.60
2019-01-24T14:12:31.406Z,32.47
2019-01-24T14:15:00.678Z,30.83
2019-01-24T14:17:48.874Z,30.60
2019-01-24T14:20:37.130Z,34.57
2019-01-24T14:23:25.604Z,33.37
2019-01-24T14:26:13.847Z,33.67
2019-01-24T14:28:43.299Z,35.87
2019-01-24T14:31:31.787Z,36.00
2019-01-24T14:34:20.483Z,36.60
2019-01-24T14:37:00.943Z,36.53
2019-01-24T14:39:42.107Z,33.97
2019-01-24T14:42:23.315Z,32.87
2019-01-24T14:45:04.135Z,36.60
2019-01-24T14:47:45.177Z,35.87
2019-01-24T14:50:26.390Z,36.27
2019-01-24T14:53:07.951Z,34.93
2019-01-24T14:55:48.890Z,34.10
2019-01-24T14:58:30.008Z,37.17
2019-01-24T15:01:11.607Z,43.70
2019-01-24T15:03:52.026Z,40.20
2019-01-24T15:06:33.596Z,33.20
2019-01-24T15:12:11.731Z,33.53
2019-01-24T15:14:59.986Z,37.27
2019-01-24T15:17:48.454Z,35.53
2019-01-24T15:20:36.956Z,39.07
2019-01-24T15:23:25.165Z,32.87
2019-01-24T15:26:13.476Z,35.40
2019-01-24T15:28:42.842Z,34.50
2019-01-24T15:31:31.088Z,34.87
2019-01-24T15:34:19.561Z,32.00
2019-01-24T15:37:00.421Z,34.97
2019-01-24T15:39:41.608Z,36.27
2019-01-24T15:42:23.598Z,52.37
2019-01-24T15:45:05.981Z,37.20
2019-01-24T15:47:47.794Z,36.17
2019-01-24T15:50:30.066Z,36.43
2019-01-24T15:53:10.784Z,38.17
2019-01-24T15:55:52.368Z,35.47
2019-01-24T15:58:33.604Z,34.80
2019-01-24T16:01:14.919Z,33.20
2019-01-24T16:03:57.089Z,37.00
2019-01-24T16:06:38.428Z,39.20
2019-01-24T16:09:20.043Z,34.07
2019-01-24T16:12:01.927Z,36.50
2019-01-24T16:14:43.692Z,38.60
2019-01-24T16:17:25.538Z,38.10
2019-01-24T16:22:48.815Z,36.10
2019-01-24T16:25:30.081Z,41.00
2019-01-24T16:28:10.726Z,35.83
2019-01-24T16:30:51.941Z,37.73
2019-01-24T16:33:33.175Z,36.73
2019-01-24T16:36:14.489Z,35.93
2019-01-24T16:38:43.909Z,36.60
2019-01-24T16:41:32.156Z,36.17
2019-01-24T16:44:22.098Z,37.57
2019-01-24T16:47:10.645Z,39.80
2019-01-24T16:49:59.100Z,35.90
2019-01-24T16:52:47.551Z,35.70
2019-01-24T16:55:35.763Z,37.63
2019-01-24T16:58:24.266Z,34.73
2019-01-24T17:01:31.591Z,38.37
2019-01-24T17:04:19.837Z,37.30
2019-01-24T17:07:08.351Z,36.23
2019-01-24T17:09:56.571Z,39.67
2019-01-24T17:12:44.844Z,37.40
2019-01-24T17:15:33.051Z,38.20
2019-01-24T17:18:21.615Z,38.80
2019-01-24T17:21:10.087Z,36.93
2019-01-24T17:23:58.608Z,37.67
2019-01-24T17:26:47.133Z,39.47
2019-01-24T17:29:35.527Z,35.50
2019-01-24T17:32:24.841Z,40.17
2019-01-24T17:35:13.408Z,37.47
2019-01-24T17:37:54.145Z,37.43
2019-01-24T17:40:35.534Z,37.87
2019-01-24T17:43:17.117Z,35.80
2019-01-24T17:45:58.245Z,36.23
2019-01-24T17:48:39.498Z,38.97
2019-01-24T17:51:20.908Z,40.07
2019-01-24T17:54:01.944Z,37.23
2019-01-24T17:56:42.568Z,41.70
2019-01-24T17:59:24.028Z,35.00
2019-01-24T18:02:05.463Z,37.07
2019-01-24T18:04:46.787Z,43.00
2019-01-24T18:07:27.908Z,39.13
2019-01-24T18:10:14.049Z,40.77
2019-01-24T18:12:40.569Z,39.13
2019-01-24T18:15:29.746Z,34.60
2019-01-24T18:18:18.386Z,35.87
2019-01-24T18:21:08.135Z,35.60
2019-01-24T18:23:56.646Z,35.37
2019-01-24T18:26:45.026Z,35.80
2019-01-24T18:29:33.387Z,41.93
2019-01-24T18:32:02.909Z,38.00
2019-01-24T18:34:51.139Z,36.67
2019-01-24T18:37:40.235Z,37.80
2019-01-24T18:40:28.793Z,37.20
2019-01-24T18:43:37.290Z,38.20
2019-01-24T18:46:25.557Z,34.27
2019-01-24T18:49:14.266Z,36.30
2019-01-24T18:52:02.967Z,36.37
2019-01-24T18:54:51.316Z,36.13
2019-01-24T18:57:40.117Z,36.60
2019-01-24T19:03:28.320Z,36.60
2019-01-24T19:06:17.057Z,34.87
2019-01-24T19:12:35.300Z,37.90
2019-01-24T19:15:24.007Z,33.13
2019-01-24T19:18:04.971Z,34.50
2019-01-24T19:20:45.527Z,37.00
2019-01-24T19:23:15.160Z,36.33
2019-01-24T19:26:04.187Z,37.60
2019-01-24T19:28:52.536Z,38.90
2019-01-24T19:31:41.298Z,39.37
2019-01-24T19:34:32.067Z,35.67
2019-01-24T19:37:20.399Z,35.13
2019-01-24T19:40:09.253Z,34.87
2019-01-24T19:42:50.125Z,38.37
2019-01-24T19:45:30.718Z,37.07
2019-01-24T19:48:11.794Z,33.57
2019-01-24T19:50:53.267Z,36.87
2019-01-24T19:53:34.515Z,34.70
2019-01-24T19:56:15.551Z,37.60
2019-01-24T19:58:56.424Z,39.30
2019-01-24T20:01:37.357Z,36.30
2019-01-24T20:04:17.987Z,37.83
2019-01-24T20:06:58.964Z,37.73
2019-01-24T20:09:39.493Z,38.00
2019-01-24T20:12:20.632Z,35.87
2019-01-24T20:15:02.165Z,37.00
2019-01-24T20:17:43.800Z,37.63
2019-01-24T20:20:25.062Z,35.67
2019-01-24T20:23:05.797Z,35.27
2019-01-24T20:25:46.700Z,38.30
2019-01-24T20:28:28.380Z,34.57
2019-01-24T20:31:09.435Z,35.53
2019-01-24T20:33:50.480Z,33.50
2019-01-24T20:36:31.692Z,35.37
2019-01-24T20:39:12.799Z,33.20
2019-01-24T20:41:53.664Z,34.20
2019-01-24T20:44:34.359Z,35.87
2019-01-24T20:47:15.663Z,31.70
2019-01-24T20:49:57.374Z,32.47
2019-01-24T20:52:26.597Z,33.47
2019-01-24T20:55:14.867Z,30.27
2019-01-24T20:58:03.741Z,32.37
2019-01-24T21:00:52.015Z,29.83
2019-01-24T21:03:40.286Z,31.00
2019-01-24T21:06:28.511Z,30.63
2019-01-24T21:09:16.755Z,32.37
2019-01-24T21:12:05.012Z,31.13
2019-01-24T21:14:52.779Z,31.40
2019-01-24T21:17:41.038Z,31.97
2019-01-24T21:20:21.978Z,27.90
2019-01-24T21:23:02.904Z,31.73
2019-01-24T21:25:43.753Z,30.37
2019-01-24T21:28:25.161Z,31.57
2019-01-24T21:31:05.795Z,28.13
2019-01-24T21:33:46.928Z,27.13
2019-01-24T21:36:28.179Z,28.33
2019-01-24T21:39:09.697Z,26.50
2019-01-24T21:47:47.451Z,28.17
2019-01-24T21:50:18.532Z,28.47
2019-01-24T21:53:07.036Z,30.67
2019-01-24T21:55:55.231Z,28.10
2019-01-24T21:58:43.476Z,30.63
2019-01-24T22:01:32.043Z,27.60
2019-01-24T22:04:20.564Z,27.83
2019-01-24T22:07:08.777Z,28.23
2019-01-24T22:09:57.007Z,27.27
2019-01-24T22:12:45.239Z,28.27
2019-01-24T22:15:33.460Z,26.90
2019-01-24T22:18:21.972Z,25.53
2019-01-24T22:21:10.440Z,28.00
2019-01-24T22:23:58.928Z,29.10
2019-01-24T22:26:47.143Z,26.07
2019-01-24T22:29:35.652Z,26.20
2019-01-24T22:32:23.851Z,27.87
2019-01-24T22:35:12.075Z,27.17
2019-01-24T22:38:00.568Z,28.20
2019-01-24T22:40:48.766Z,27.50
2019-01-24T22:43:37.000Z,26.20
2019-01-24T22:46:25.277Z,30.17
2019-01-24T22:49:06.492Z,32.00
2019-01-24T22:51:47.251Z,27.27
2019-01-24T22:54:28.058Z,27.53
2019-01-24T22:57:09.423Z,28.00
2019-01-24T22:59:50.943Z,32.37
2019-01-24T23:02:32.332Z,29.73
2019-01-24T23:05:13.350Z,31.37
2019-01-24T23:07:53.879Z,30.27
2019-01-24T23:10:35.203Z,30.67
2019-01-24T23:13:15.995Z,28.97
2019-01-24T23:15:57.633Z,31.60
2019-01-24T23:18:38.160Z,29.87
2019-01-24T23:21:19.495Z,29.50
2019-01-24T23:24:00.785Z,29.83
2019-01-24T23:26:41.287Z,29.07
2019-01-24T23:29:22.204Z,26.10
2019-01-24T23:32:03.218Z,26.80
2019-01-24T23:34:43.775Z,27.30
2019-01-24T23:37:24.663Z,28.60
2019-01-24T23:40:05.332Z,25.97
2019-01-24T23:42:46.256Z,24.83
2019-01-24T23:45:27.145Z,26.60
2019-01-24T23:48:08.076Z,27.00
2019-01-24T23:50:49.376Z,28.87
2019-01-24T23:53:29.939Z,28.57
2019-01-24T23:56:12.134Z,26.50
2019-01-24T23:58:52.927Z,26.67
